Time;durP1;ratioP1;P1;durP2;ratioP2;P2;SDS_P1;SDS_P2;PMS_P1;PMS_P2;Temp;Humidity;BMP_temperature;BMP_pressure;BME280_temperature;BME280_humidity;BME280_pressure;Samples;Min_cycle;Max_cycle;Signal;HPM_P1;HPM_P2
2022/06/28 00:01:53;;;;;;;34.33;19.40;;;20.90;97.30;;;;;;4991772;28;20445;-87
2022/06/28 00:04:19;;;;;;;31.70;18.50;;;20.80;97.30;;;;;;4991797;28;20755;-87
2022/06/28 00:06:46;;;;;;;36.50;20.57;;;20.80;97.30;;;;;;4991516;28;20452;-87
2022/06/28 00:09:12;;;;;;;39.40;20.93;;;20.80;97.30;;;;;;4991742;28;20877;-87
2022/06/28 00:11:39;;;;;;;37.67;21.27;;;20.70;97.30;;;;;;4991794;28;20903;-87
2022/06/28 00:16:04;;;;;;;41.37;21.30;;;20.70;97.30;;;;;;4992742;28;20771;-87
2022/06/28 00:16:50;;;;;;;38.23;20.87;;;20.70;97.30;;;;;;4992160;28;20496;-87
2022/06/28 00:19:16;;;;;;;39.93;22.73;;;20.60;97.30;;;;;;4991504;28;20499;-87
2022/06/28 00:21:41;;;;;;;40.50;22.30;;;20.60;97.30;;;;;;4991536;28;20229;-87
2022/06/28 00:24:07;;;;;;;38.70;22.10;;;20.60;97.30;;;;;;4991473;28;20624;-87
2022/06/28 00:26:33;;;;;;;38.53;22.10;;;20.60;97.30;;;;;;4991620;28;20186;-87
2022/06/28 00:28:58;;;;;;;41.03;23.07;;;20.50;97.30;;;;;;4992721;28;20186;-87
2022/06/28 00:31:25;;;;;;;44.90;22.77;;;20.50;97.30;;;;;;4994896;28;20181;-87
2022/06/28 00:33:51;;;;;;;43.60;23.33;;;20.50;97.30;;;;;;4995021;28;20184;-87
2022/06/28 00:36:17;;;;;;;41.90;22.67;;;20.50;97.30;;;;;;4995182;28;20467;-87
2022/06/28 00:38:42;;;;;;;42.30;22.73;;;20.50;97.30;;;;;;4993886;28;20453;-87
2022/06/28 00:41:08;;;;;;;48.23;24.97;;;20.40;97.30;;;;;;4995119;28;20812;-88
2022/06/28 00:43:35;;;;;;;39.50;21.30;;;20.40;97.30;;;;;;4994444;28;20539;-87
2022/06/28 00:46:02;;;;;;;39.20;21.80;;;20.40;97.30;;;;;;4995210;28;20421;-87
2022/06/28 00:48:28;;;;;;;38.57;20.77;;;20.40;97.30;;;;;;4994070;28;20452;-87
2022/06/28 00:50:54;;;;;;;42.40;23.83;;;20.40;97.30;;;;;;4995050;28;20476;-87
2022/06/28 00:53:19;;;;;;;42.17;21.93;;;20.40;97.30;;;;;;4991155;28;21039;-87
2022/06/28 00:55:46;;;;;;;43.30;22.47;;;20.40;97.30;;;;;;4987099;28;20507;-87
2022/06/28 00:58:14;;;;;;;39.17;21.20;;;20.40;97.30;;;;;;4994958;28;20210;-87
2022/06/28 01:00:45;;;;;;;40.73;22.30;;;20.40;97.30;;;;;;4988175;28;20444;-87
2022/06/28 01:03:20;;;;;;;38.20;22.77;;;20.40;97.30;;;;;;4994291;28;20413;-87
2022/06/28 01:05:46;;;;;;;40.87;23.10;;;20.40;97.30;;;;;;4990729;28;20474;-88
2022/06/28 01:08:12;;;;;;;43.10;22.53;;;20.30;97.30;;;;;;4994568;28;20472;-87
2022/06/28 01:10:39;;;;;;;38.90;22.30;;;20.30;97.30;;;;;;4994708;28;20519;-87
2022/06/28 01:13:05;;;;;;;44.67;23.00;;;20.30;97.30;;;;;;4994453;28;20184;-87
2022/06/28 01:15:32;;;;;;;42.03;22.97;;;20.30;97.30;;;;;;4994334;28;20552;-87
2022/06/28 01:18:00;;;;;;;39.90;22.87;;;20.30;97.30;;;;;;4994201;28;20461;-86
2022/06/28 01:20:26;;;;;;;45.60;24.83;;;20.30;97.30;;;;;;4994485;28;20939;-87
2022/06/28 01:22:55;;;;;;;46.20;24.80;;;20.30;97.30;;;;;;4984656;28;20464;-87
2022/06/28 01:25:22;;;;;;;44.30;24.30;;;20.30;97.30;;;;;;4975017;28;20426;-87
2022/06/28 01:27:48;;;;;;;49.90;24.57;;;20.30;97.30;;;;;;4985120;28;20451;-87
2022/06/28 01:30:14;;;;;;;44.43;25.23;;;20.20;97.30;;;;;;4995458;28;20417;-87
2022/06/28 01:32:41;;;;;;;40.43;22.17;;;20.20;97.30;;;;;;4994361;28;20341;-87
2022/06/28 01:35:08;;;;;;;45.93;24.43;;;20.20;97.30;;;;;;4995476;28;20448;-88
2022/06/28 01:37:34;;;;;;;52.77;25.10;;;20.20;97.30;;;;;;4993685;28;20893;-87
2022/06/28 01:40:01;;;;;;;44.60;23.70;;;20.10;97.30;;;;;;4993204;28;20420;-87
2022/06/28 01:42:28;;;;;;;46.77;25.17;;;20.10;97.30;;;;;;4993415;28;21045;-85
2022/06/28 01:44:56;;;;;;;41.33;24.70;;;20.10;97.30;;;;;;4993944;28;20425;-86
2022/06/28 01:47:23;;;;;;;45.20;25.83;;;20.10;97.30;;;;;;4980801;28;20511;-88
2022/06/28 01:49:49;;;;;;;43.87;24.03;;;20.00;97.30;;;;;;4993724;28;20468;-88
2022/06/28 01:52:15;;;;;;;43.97;24.57;;;20.00;97.30;;;;;;4993712;28;20433;-87
2022/06/28 01:54:43;;;;;;;50.40;26.07;;;20.00;97.30;;;;;;4993434;28;20209;-86
2022/06/28 01:57:09;;;;;;;46.90;25.63;;;20.00;97.30;;;;;;4993548;28;20476;-86
2022/06/28 01:59:36;;;;;;;44.37;24.73;;;20.00;97.30;;;;;;4993920;28;20425;-86
2022/06/28 02:02:02;;;;;;;49.53;27.43;;;19.90;97.30;;;;;;4993551;28;20181;-87
2022/06/28 02:04:29;;;;;;;52.67;27.27;;;19.90;97.30;;;;;;4993767;28;20421;-87
2022/06/28 02:06:56;;;;;;;45.33;26.37;;;19.90;97.30;;;;;;4993521;28;20733;-86
2022/06/28 02:09:22;;;;;;;55.03;27.60;;;19.80;97.30;;;;;;4993046;28;20433;-87
2022/06/28 02:11:47;;;;;;;53.53;28.77;;;19.80;97.30;;;;;;4993401;28;20440;-87
2022/06/28 02:14:13;;;;;;;52.10;26.50;;;19.80;97.30;;;;;;4982140;28;20442;-87
2022/06/28 02:16:39;;;;;;;54.07;27.43;;;19.80;97.30;;;;;;4991142;28;20214;-87
2022/06/28 02:19:04;;;;;;;56.00;28.10;;;19.80;97.30;;;;;;4993314;28;20269;-86
2022/06/28 02:21:36;;;;;;;49.73;27.63;;;19.80;97.30;;;;;;4994332;28;20425;-87
2022/06/28 02:24:03;;;;;;;48.20;26.13;;;19.80;97.30;;;;;;4981514;28;20186;-87
2022/06/28 02:26:29;;;;;;;51.67;25.90;;;19.80;97.30;;;;;;4992473;28;20801;-86
2022/06/28 02:28:55;;;;;;;52.47;26.97;;;19.70;97.30;;;;;;4994364;28;20452;-87
2022/06/28 02:31:20;;;;;;;57.00;28.57;;;19.70;97.30;;;;;;4994149;28;20182;-87
2022/06/28 02:33:46;;;;;;;54.63;27.87;;;19.70;97.30;;;;;;4992731;28;20216;-86
2022/06/28 02:41:39;;;;;;;58.70;28.73;;;19.60;97.30;;;;;;4994037;28;20475;-87
2022/06/28 02:44:05;;;;;;;48.93;26.13;;;19.60;97.30;;;;;;4992844;28;20425;-87
2022/06/28 02:46:31;;;;;;;55.53;28.80;;;19.60;97.30;;;;;;4992957;28;20182;-87
2022/06/28 02:48:57;;;;;;;57.17;28.17;;;19.60;97.30;;;;;;4992719;28;20190;-87
2022/06/28 02:51:22;;;;;;;56.67;29.10;;;19.60;97.30;;;;;;4992489;28;20234;-87
2022/06/28 02:53:48;;;;;;;55.40;27.93;;;19.60;97.30;;;;;;4992267;28;20301;-86
2022/06/28 02:56:14;;;;;;;51.20;27.77;;;19.60;97.30;;;;;;4992535;28;20217;-88
2022/06/28 02:58:40;;;;;;;55.93;26.97;;;19.50;97.30;;;;;;4992692;28;20441;-88
2022/06/28 03:01:06;;;;;;;53.83;27.77;;;19.50;97.30;;;;;;4992553;28;20595;-87
2022/06/28 03:03:31;;;;;;;52.77;26.27;;;19.50;97.30;;;;;;4992340;28;20202;-87
2022/06/28 03:05:57;;;;;;;54.30;27.60;;;19.50;97.30;;;;;;4993600;28;20182;-87
2022/06/28 03:08:22;;;;;;;56.60;28.53;;;19.50;97.30;;;;;;4991523;28;20208;-88
2022/06/28 03:10:48;;;;;;;55.27;27.90;;;19.50;97.30;;;;;;4993770;28;20209;-87
2022/06/28 03:13:14;;;;;;;55.57;28.77;;;19.50;97.30;;;;;;4992505;28;20185;-87
2022/06/28 03:15:39;;;;;;;56.23;28.93;;;19.50;97.30;;;;;;4992136;28;20182;-87
2022/06/28 03:18:05;;;;;;;52.37;27.77;;;19.50;97.30;;;;;;4992057;28;20605;-86
2022/06/28 03:20:31;;;;;;;56.50;28.70;;;19.50;97.30;;;;;;4992344;28;20211;-87
2022/06/28 03:22:57;;;;;;;55.90;28.90;;;19.50;97.30;;;;;;4992148;28;20316;-86
2022/06/28 03:25:22;;;;;;;53.93;26.73;;;19.50;97.30;;;;;;4991783;28;20185;-86
2022/06/28 03:27:48;;;;;;;55.47;27.83;;;19.50;97.30;;;;;;4991788;28;20445;-85
2022/06/28 03:30:14;;;;;;;59.20;28.60;;;19.40;97.30;;;;;;4992275;28;20178;-88
2022/06/28 03:32:40;;;;;;;59.27;28.73;;;19.40;97.30;;;;;;4992072;28;20188;-87
2022/06/28 03:35:07;;;;;;;58.30;28.10;;;19.50;97.30;;;;;;4992152;28;20417;-88
2022/06/28 03:37:34;;;;;;;60.50;28.80;;;19.50;97.30;;;;;;4993308;28;20739;-88
2022/06/28 03:39:59;;;;;;;48.37;24.93;;;19.50;97.30;;;;;;4991809;28;20444;-88
2022/06/28 03:42:25;;;;;;;49.53;27.60;;;19.60;97.30;;;;;;4991805;28;20487;-88
2022/06/28 03:44:51;;;;;;;57.40;28.90;;;19.60;97.30;;;;;;4992174;28;20181;-88
2022/06/28 03:47:17;;;;;;;56.77;28.40;;;19.60;97.30;;;;;;4991588;28;21026;-87
2022/06/28 03:49:42;;;;;;;52.80;27.87;;;19.60;97.30;;;;;;4992893;28;20182;-87
2022/06/28 03:52:08;;;;;;;58.77;29.13;;;19.60;97.30;;;;;;4989403;28;20194;-87
2022/06/28 03:54:33;;;;;;;57.27;28.13;;;19.60;97.30;;;;;;4972283;28;20707;-86
2022/06/28 03:56:59;;;;;;;56.27;27.93;;;19.50;97.30;;;;;;4989082;28;20411;-87
2022/06/28 03:59:25;;;;;;;55.87;28.87;;;19.50;97.30;;;;;;4991679;28;20209;-86
2022/06/28 04:01:51;;;;;;;51.83;28.10;;;19.50;97.30;;;;;;4992119;28;20190;-85
2022/06/28 04:04:16;;;;;;;59.10;28.27;;;19.50;97.30;;;;;;4985863;28;20535;-85
2022/06/28 04:06:42;;;;;;;59.27;29.47;;;19.40;97.30;;;;;;4983081;28;20202;-84
2022/06/28 04:09:08;;;;;;;62.20;28.37;;;19.40;97.30;;;;;;4987514;28;20741;-84
2022/06/28 04:11:34;;;;;;;55.80;29.10;;;19.40;97.30;;;;;;4986264;28;20272;-84
2022/06/28 04:13:59;;;;;;;58.13;27.87;;;19.40;97.30;;;;;;4987307;28;20177;-85
2022/06/28 04:16:25;;;;;;;65.33;26.83;;;19.40;97.30;;;;;;4986465;28;20210;-84
2022/06/28 04:18:51;;;;;;;54.27;27.10;;;19.40;97.30;;;;;;4990293;28;20186;-85
2022/06/28 04:21:18;;;;;;;56.93;27.27;;;19.40;97.30;;;;;;4987143;28;20978;-85
2022/06/28 04:23:44;;;;;;;53.20;27.53;;;19.40;97.30;;;;;;4982410;28;20182;-85
2022/06/28 04:26:11;;;;;;;58.70;29.10;;;19.40;97.30;;;;;;4989969;28;20500;-84
2022/06/28 04:28:36;;;;;;;59.50;30.60;;;19.40;97.30;;;;;;4983498;28;20449;-84
2022/06/28 04:31:03;;;;;;;54.90;28.40;;;19.40;97.30;;;;;;4990911;28;20441;-84
2022/06/28 04:33:29;;;;;;;57.63;28.37;;;19.40;97.30;;;;;;4991154;28;20285;-84
2022/06/28 04:35:55;;;;;;;58.03;26.50;;;19.40;97.30;;;;;;5017499;28;20483;-84
2022/06/28 04:38:22;;;;;;;51.47;28.27;;;19.40;97.30;;;;;;4991361;28;20441;-84
2022/06/28 04:40:47;;;;;;;56.17;28.37;;;19.40;97.30;;;;;;4991103;28;20488;-84
2022/06/28 04:43:13;;;;;;;56.27;28.00;;;19.40;97.30;;;;;;4991049;28;20479;-83
2022/06/28 04:45:39;;;;;;;61.87;30.50;;;19.30;97.30;;;;;;4991469;28;20190;-84
2022/06/28 04:48:05;;;;;;;58.67;28.33;;;19.30;97.30;;;;;;4990284;28;20198;-84
2022/06/28 04:50:30;;;;;;;62.30;28.13;;;19.30;97.30;;;;;;4981717;28;20233;-84
2022/06/28 04:52:56;;;;;;;56.40;27.47;;;19.30;97.30;;;;;;4983879;28;20437;-84
2022/06/28 04:55:22;;;;;;;54.57;25.70;;;19.20;97.30;;;;;;4976182;28;20236;-84
2022/06/28 04:57:47;;;;;;;56.80;27.47;;;19.20;97.30;;;;;;4980863;28;20688;-84
2022/06/28 05:00:14;;;;;;;52.43;26.53;;;19.20;97.30;;;;;;4983305;28;20586;-83
2022/06/28 05:02:40;;;;;;;50.43;25.90;;;19.20;97.30;;;;;;4979518;28;20628;-83
2022/06/28 05:05:07;;;;;;;56.87;28.73;;;19.20;97.30;;;;;;4974693;28;20432;-83
2022/06/28 05:07:33;;;;;;;56.60;30.07;;;19.20;97.30;;;;;;4987280;28;20487;-83
2022/06/28 05:10:00;;;;;;;53.10;27.93;;;19.20;97.30;;;;;;4977872;28;20425;-84
2022/06/28 05:12:25;;;;;;;56.80;28.10;;;19.10;97.30;;;;;;4987583;28;20896;-83
2022/06/28 05:14:51;;;;;;;44.53;24.63;;;19.10;97.30;;;;;;4988535;28;20428;-84
2022/06/28 05:17:17;;;;;;;46.20;25.07;;;19.00;97.30;;;;;;4990433;28;20566;-84
2022/06/28 05:19:43;;;;;;;45.97;23.27;;;19.00;97.30;;;;;;4990940;28;20174;-84
2022/06/28 05:22:08;;;;;;;41.00;22.07;;;18.90;97.30;;;;;;4991673;28;20429;-83
2022/06/28 05:24:35;;;;;;;37.53;22.00;;;18.90;97.30;;;;;;4990837;28;20716;-83
2022/06/28 05:27:18;;;;;;;39.80;20.97;;;18.80;97.30;;;;;;4991601;28;20221;-84
2022/06/28 05:29:44;;;;;;;34.40;20.20;;;18.70;97.30;;;;;;4993635;28;20437;-86
2022/06/28 05:32:11;;;;;;;39.03;20.10;;;18.70;97.30;;;;;;4994198;28;20433;-86
2022/06/28 05:34:37;;;;;;;32.67;20.60;;;18.60;97.30;;;;;;4993804;28;20440;-86
2022/06/28 05:37:03;;;;;;;41.60;20.90;;;18.60;97.30;;;;;;4992473;28;20468;-86
2022/06/28 05:39:28;;;;;;;34.30;19.03;;;18.50;97.30;;;;;;4986433;28;20178;-86
2022/06/28 05:41:54;;;;;;;37.70;21.40;;;18.50;97.30;;;;;;4991152;28;20201;-86
2022/06/28 05:44:19;;;;;;;31.13;18.50;;;18.50;97.30;;;;;;4990793;28;20182;-86
2022/06/28 05:46:45;;;;;;;32.67;19.17;;;18.50;97.30;;;;;;4984590;28;20298;-86
2022/06/28 05:49:11;;;;;;;31.60;18.63;;;18.50;97.30;;;;;;4989455;28;20189;-86
2022/06/28 05:51:37;;;;;;;34.00;19.67;;;18.50;97.30;;;;;;4991188;28;20232;-86
2022/06/28 05:54:03;;;;;;;36.93;19.97;;;18.50;97.30;;;;;;4991052;28;20429;-86
2022/06/28 05:56:29;;;;;;;37.17;19.90;;;18.50;97.30;;;;;;4984226;28;20466;-86
2022/06/28 05:58:55;;;;;;;30.50;18.30;;;18.50;97.30;;;;;;4989438;28;20698;-86
2022/06/28 06:01:22;;;;;;;36.83;18.93;;;18.50;97.30;;;;;;4992136;28;20413;-86
2022/06/28 06:03:48;;;;;;;32.57;17.93;;;18.60;97.30;;;;;;4992625;28;20768;-85
2022/06/28 06:06:14;;;;;;;31.90;17.93;;;18.60;97.30;;;;;;4995128;28;20421;-85
2022/06/28 06:08:40;;;;;;;36.37;19.77;;;18.60;97.30;;;;;;4993609;28;20408;-84
2022/06/28 06:11:07;;;;;;;33.73;19.40;;;18.60;97.30;;;;;;4994148;28;20429;-84
2022/06/28 06:13:35;;;;;;;34.80;18.87;;;18.70;97.30;;;;;;4993904;28;20189;-84
2022/06/28 06:16:02;;;;;;;39.00;21.20;;;18.70;97.30;;;;;;4995640;28;20429;-85
2022/06/28 06:18:27;;;;;;;35.47;20.53;;;18.70;97.30;;;;;;4994157;28;20445;-84
2022/06/28 06:20:53;;;;;;;42.23;20.20;;;18.70;97.30;;;;;;4994440;28;20831;-84
2022/06/28 06:23:18;;;;;;;31.83;19.93;;;18.70;97.30;;;;;;4995256;28;20297;-85
2022/06/28 06:25:44;;;;;;;36.60;19.90;;;18.80;97.30;;;;;;4994719;28;20189;-85
2022/06/28 06:28:10;;;;;;;41.83;22.33;;;18.80;97.30;;;;;;4993692;28;20271;-84
2022/06/28 06:30:36;;;;;;;35.10;21.13;;;18.90;97.30;;;;;;4995082;28;20185;-84
2022/06/28 06:33:02;;;;;;;33.47;20.40;;;19.00;97.30;;;;;;4993504;28;20178;-85
2022/06/28 06:35:28;;;;;;;34.77;19.03;;;19.10;97.30;;;;;;4981090;28;20437;-85
2022/06/28 06:38:00;;;;;;;34.97;21.33;;;19.20;97.30;;;;;;4985974;28;20477;-84
2022/06/28 06:40:29;;;;;;;34.93;20.17;;;19.20;97.30;;;;;;4993519;28;20623;-85
2022/06/28 06:42:55;;;;;;;33.43;19.63;;;19.20;97.30;;;;;;4994085;28;20437;-85
2022/06/28 06:45:21;;;;;;;35.93;19.77;;;19.20;97.30;;;;;;4994282;28;20427;-85
2022/06/28 06:47:46;;;;;;;28.27;19.20;;;19.20;97.30;;;;;;4993965;28;20437;-85
2022/06/28 06:50:12;;;;;;;26.43;17.13;;;19.20;97.30;;;;;;4994155;28;20233;-84
2022/06/28 06:52:39;;;;;;;32.17;20.57;;;19.20;97.30;;;;;;4994403;28;20173;-84
2022/06/28 06:55:06;;;;;;;28.47;19.17;;;19.20;97.30;;;;;;4998824;28;20606;-84
2022/06/28 06:57:32;;;;;;;30.13;19.07;;;19.20;97.30;;;;;;4994249;28;20456;-85
2022/06/28 06:59:57;;;;;;;29.23;17.13;;;19.30;97.30;;;;;;4993896;28;20632;-84
2022/06/28 07:02:23;;;;;;;23.03;15.90;;;19.30;97.30;;;;;;4994257;28;20519;-84
2022/06/28 07:04:49;;;;;;;22.43;14.73;;;19.30;97.30;;;;;;4987826;28;20178;-85
2022/06/28 07:07:14;;;;;;;24.50;15.93;;;19.30;97.30;;;;;;4985930;28;20668;-85
2022/06/28 07:09:40;;;;;;;25.27;15.43;;;19.30;97.30;;;;;;4993285;28;20185;-84
2022/06/28 07:12:06;;;;;;;24.53;15.10;;;19.30;97.30;;;;;;4994460;28;20178;-84
2022/06/28 07:14:32;;;;;;;21.93;14.40;;;19.30;97.30;;;;;;4992822;28;20628;-84
2022/06/28 07:16:57;;;;;;;20.07;14.47;;;19.30;97.30;;;;;;4993608;28;20521;-84
2022/06/28 07:19:23;;;;;;;20.23;14.07;;;19.30;97.30;;;;;;4994580;28;20697;-85
2022/06/28 07:21:49;;;;;;;25.43;15.57;;;19.30;97.30;;;;;;4993792;28;20181;-84
2022/06/28 07:24:14;;;;;;;24.60;15.67;;;19.30;97.30;;;;;;4980463;28;20183;-84
2022/06/28 07:26:40;;;;;;;22.50;15.43;;;19.40;97.30;;;;;;4980553;28;20753;-84
2022/06/28 07:29:06;;;;;;;25.50;14.03;;;19.40;97.30;;;;;;4993147;28;20193;-85
2022/06/28 07:31:31;;;;;;;19.73;13.50;;;19.30;97.30;;;;;;4992865;28;20206;-85
2022/06/28 07:33:57;;;;;;;18.80;13.10;;;19.30;97.30;;;;;;4992905;28;20328;-85
2022/06/28 07:36:23;;;;;;;20.70;15.00;;;19.30;97.30;;;;;;4992929;28;20201;-85
2022/06/28 07:38:49;;;;;;;22.40;12.10;;;19.40;97.30;;;;;;4992480;28;20433;-85
2022/06/28 07:41:15;;;;;;;21.27;13.90;;;19.40;97.30;;;;;;5016988;28;20189;-84
2022/06/28 07:43:40;;;;;;;21.10;12.60;;;19.40;97.30;;;;;;4991946;28;20177;-85
2022/06/28 07:46:06;;;;;;;18.97;12.87;;;19.40;97.30;;;;;;4992548;28;20184;-85
2022/06/28 07:48:32;;;;;;;18.47;11.90;;;19.50;97.30;;;;;;4994060;28;20205;-85
2022/06/28 07:53:43;;;;;;;19.47;12.67;;;19.60;97.30;;;;;;4982475;28;20463;-85
2022/06/28 07:56:08;;;;;;;16.07;11.00;;;19.70;97.30;;;;;;4993485;28;20417;-85
2022/06/28 07:58:34;;;;;;;17.23;12.00;;;19.70;97.30;;;;;;4985484;28;20699;-84
2022/06/28 08:00:59;;;;;;;17.20;11.20;;;19.70;97.30;;;;;;4975544;28;20186;-84
2022/06/28 08:03:25;;;;;;;17.53;11.00;;;19.70;97.30;;;;;;4992896;28;20455;-84
2022/06/28 08:05:51;;;;;;;16.43;11.17;;;19.60;97.30;;;;;;4993954;28;20217;-84
2022/06/28 08:08:16;;;;;;;16.70;11.30;;;19.60;97.30;;;;;;4991706;28;20202;-86
2022/06/28 08:10:42;;;;;;;18.10;11.67;;;19.70;97.30;;;;;;4990831;28;20185;-86
2022/06/28 08:13:08;;;;;;;14.97;10.63;;;19.80;97.30;;;;;;4988909;28;20593;-86
2022/06/28 08:15:34;;;;;;;15.70;11.00;;;20.00;97.30;;;;;;4989352;28;20186;-85
2022/06/28 08:18:00;;;;;;;17.10;11.23;;;20.10;97.30;;;;;;4988763;28;20475;-87
2022/06/28 08:20:26;;;;;;;16.17;9.83;;;20.10;97.30;;;;;;4989088;28;20530;-87
2022/06/28 08:22:51;;;;;;;14.27;9.77;;;20.10;97.30;;;;;;4988487;28;20656;-86
2022/06/28 08:25:17;;;;;;;12.33;9.47;;;20.10;97.30;;;;;;4989301;28;20428;-86
2022/06/28 08:27:43;;;;;;;12.17;9.40;;;20.10;97.30;;;;;;4988644;28;20205;-86
2022/06/28 08:30:09;;;;;;;19.93;10.33;;;20.20;97.30;;;;;;4988767;28;20574;-86
2022/06/28 08:32:34;;;;;;;13.33;8.73;;;20.20;97.30;;;;;;4986680;28;20684;-86
2022/06/28 08:35:00;;;;;;;10.23;7.93;;;20.30;97.30;;;;;;4977704;28;20648;-86
2022/06/28 08:37:25;;;;;;;9.10;7.03;;;20.30;97.30;;;;;;4989459;28;20679;-91
2022/06/28 08:39:51;;;;;;;10.13;7.87;;;20.30;97.30;;;;;;4988953;28;20178;-87
2022/06/28 08:42:25;;;;;;;12.07;7.20;;;20.30;97.30;;;;;;4989723;28;20216;-86
2022/06/28 08:44:52;;;;;;;10.83;7.47;;;20.30;97.30;;;;;;4988682;28;20245;-86
2022/06/28 08:47:19;;;;;;;10.73;7.20;;;20.40;97.30;;;;;;4988253;28;20836;-87
2022/06/28 08:49:55;;;;;;;12.30;8.37;;;20.50;97.30;;;;;;4988929;28;20809;-87
2022/06/28 08:52:22;;;;;;;8.67;6.90;;;20.60;97.30;;;;;;4992614;28;20783;-86
2022/06/28 08:54:50;;;;;;;6.97;6.30;;;20.70;97.00;;;;;;4992646;28;20435;-87
2022/06/28 08:57:18;;;;;;;6.80;5.13;;;20.80;96.10;;;;;;4992382;28;20563;-87
2022/06/28 08:59:45;;;;;;;7.30;5.73;;;20.90;95.60;;;;;;4992273;28;21049;-88
2022/06/28 09:02:13;;;;;;;8.77;5.70;;;21.00;94.10;;;;;;4992217;28;20418;-87
2022/06/28 09:04:39;;;;;;;6.13;5.50;;;21.00;94.40;;;;;;4992108;28;20953;-87
2022/06/28 09:07:05;;;;;;;6.70;5.73;;;21.10;93.20;;;;;;4992094;28;20463;-87
2022/06/28 09:09:31;;;;;;;9.93;6.10;;;21.10;92.50;;;;;;5013007;28;20425;-87
2022/06/28 09:11:57;;;;;;;12.10;6.80;;;21.10;92.30;;;;;;4991912;28;20264;-87
2022/06/28 09:14:29;;;;;;;11.03;6.83;;;21.00;92.50;;;;;;4991485;28;20186;-88
2022/06/28 09:16:56;;;;;;;8.50;5.10;;;21.10;93.70;;;;;;4991770;28;20556;-87
2022/06/28 09:19:38;;;;;;;5.03;4.63;;;21.10;92.20;;;;;;4991651;28;20907;-87
2022/06/28 09:22:04;;;;;;;6.17;5.00;;;21.20;91.90;;;;;;4992032;28;20428;-88
2022/06/28 09:24:30;;;;;;;6.83;5.50;;;21.20;92.00;;;;;;4993241;28;20421;-88
2022/06/28 09:27:03;;;;;;;9.23;4.33;;;21.10;91.40;;;;;;4991990;28;20440;-87
2022/06/28 09:29:29;;;;;;;6.70;4.53;;;21.10;90.20;;;;;;4991838;28;20479;-88
2022/06/28 09:31:55;;;;;;;4.60;4.30;;;21.20;91.10;;;;;;4991418;28;20517;-89
2022/06/28 09:34:20;;;;;;;3.83;3.60;;;21.30;91.00;;;;;;4991526;28;20189;-87
2022/06/28 09:36:55;;;;;;;7.43;4.47;;;21.40;90.50;;;;;;4991563;28;20221;-88
2022/06/28 09:39:22;;;;;;;5.27;4.60;;;21.50;90.70;;;;;;4992625;28;20264;-87
2022/06/28 09:41:51;;;;;;;5.70;4.90;;;21.60;90.30;;;;;;4991839;28;20450;-87
2022/06/28 09:44:17;;;;;;;7.00;5.17;;;21.70;90.30;;;;;;4993033;28;20491;-88
2022/06/28 09:46:44;;;;;;;5.40;4.37;;;21.70;90.00;;;;;;4991750;28;20485;-88
2022/06/28 09:49:12;;;;;;;5.70;3.70;;;21.70;89.50;;;;;;4990771;28;20236;-88
2022/06/28 09:51:38;;;;;;;4.80;4.00;;;21.60;89.00;;;;;;4991347;28;20472;-88
2022/06/28 09:54:06;;;;;;;3.93;3.30;;;21.50;90.00;;;;;;4990991;28;20959;-88
2022/06/28 09:56:41;;;;;;;5.57;4.13;;;21.60;89.70;;;;;;4991113;28;20623;-88
2022/06/28 09:59:08;;;;;;;4.00;3.13;;;21.80;88.10;;;;;;4990830;28;20479;-89
2022/06/28 10:01:35;;;;;;;5.53;4.30;;;21.90;88.30;;;;;;4989804;28;20447;-89
2022/06/28 10:04:01;;;;;;;5.90;3.77;;;22.00;87.40;;;;;;4990973;28;20850;-88
2022/06/28 10:06:27;;;;;;;3.93;3.00;;;21.90;87.40;;;;;;4991270;28;20488;-88
2022/06/28 10:08:53;;;;;;;3.87;3.13;;;21.90;87.60;;;;;;4992238;28;20425;-88
2022/06/28 10:11:19;;;;;;;4.13;3.60;;;21.90;86.80;;;;;;4992943;28;20428;-84
2022/06/28 10:16:47;;;;;;;5.80;4.17;;;22.20;87.80;;;;;;4992342;28;20563;-85
2022/06/28 10:19:17;;;;;;;4.90;3.87;;;22.40;87.80;;;;;;4992237;28;20460;-89
2022/06/28 10:22:10;;;;;;;7.47;4.37;;;22.40;87.50;;;;;;4992280;28;20421;-85
2022/06/28 10:27:58;;;;;;;5.30;3.63;;;22.60;86.50;;;;;;4982225;28;20432;-87
2022/06/28 10:30:28;;;;;;;4.80;4.10;;;22.60;84.10;;;;;;4989990;28;20421;-87
2022/06/28 10:32:58;;;;;;;3.63;3.47;;;22.60;84.00;;;;;;4991302;28;20171;-86
2022/06/28 10:35:33;;;;;;;5.20;3.47;;;22.60;83.90;;;;;;4991835;28;20428;-86
2022/06/28 10:38:07;;;;;;;4.37;3.33;;;22.70;85.00;;;;;;4991509;28;20464;-86
2022/06/28 10:40:47;;;;;;;6.40;3.67;;;22.70;84.90;;;;;;4993464;28;20487;-86
2022/06/28 10:43:14;;;;;;;4.20;3.00;;;22.80;84.50;;;;;;4992024;28;20417;-87
2022/06/28 10:46:09;;;;;;;3.50;3.30;;;22.80;84.30;;;;;;4991370;28;20417;-86
2022/06/28 10:48:50;;;;;;;3.77;3.00;;;22.90;83.00;;;;;;4991905;28;20440;-87
2022/06/28 10:51:17;;;;;;;3.20;2.70;;;23.10;83.10;;;;;;4991362;28;20460;-86
2022/06/28 10:53:57;;;;;;;4.70;3.50;;;23.20;83.30;;;;;;4990698;28;20978;-86
2022/06/28 10:56:24;;;;;;;6.60;3.60;;;23.30;82.40;;;;;;4991030;28;20409;-86
2022/06/28 10:58:54;;;;;;;4.93;3.63;;;23.40;82.30;;;;;;4991174;28;20425;-86
2022/06/28 11:01:40;;;;;;;5.10;3.17;;;23.40;83.00;;;;;;4990854;28;20973;-86
2022/06/28 11:04:24;;;;;;;6.13;2.80;;;23.30;82.20;;;;;;4990433;28;20451;-87
2022/06/28 11:06:50;;;;;;;3.43;2.60;;;23.20;81.20;;;;;;4991637;28;20445;-84
2022/06/28 11:09:27;;;;;;;5.27;3.33;;;23.20;81.70;;;;;;4996072;28;20428;-84
2022/06/28 11:12:19;;;;;;;7.40;2.87;;;23.30;80.90;;;;;;4972562;28;20274;-84
2022/06/28 11:14:56;;;;;;;4.40;3.50;;;23.50;81.70;;;;;;4979871;28;20425;-84
2022/06/28 11:17:26;;;;;;;4.70;3.30;;;23.60;81.20;;;;;;4990538;28;21021;-84
2022/06/28 11:19:58;;;;;;;4.87;3.60;;;23.70;81.20;;;;;;4990326;28;20421;-85
2022/06/28 11:22:43;;;;;;;4.10;3.30;;;23.80;81.50;;;;;;4990644;28;20781;-84
2022/06/28 11:25:15;;;;;;;4.10;3.30;;;23.80;81.00;;;;;;4977366;28;20790;-85
2022/06/28 11:27:55;;;;;;;4.63;3.33;;;23.90;79.10;;;;;;4987075;28;20971;-84
2022/06/28 11:30:27;;;;;;;4.40;3.50;;;24.10;79.30;;;;;;4990152;28;20429;-84
2022/06/28 11:32:59;;;;;;;3.83;3.33;;;24.20;79.10;;;;;;4985228;28;20417;-84
2022/06/28 11:35:29;;;;;;;2.93;2.73;;;24.30;79.90;;;;;;4988424;28;20445;-84
2022/06/28 11:37:56;;;;;;;3.07;2.70;;;24.40;79.00;;;;;;4981907;28;20472;-83
2022/06/28 11:40:26;;;;;;;5.20;3.13;;;24.40;75.80;;;;;;4991236;28;20420;-83
2022/06/28 11:43:05;;;;;;;6.33;3.03;;;24.50;77.40;;;;;;4992671;28;20417;-84
2022/06/28 11:45:33;;;;;;;4.83;2.43;;;24.60;77.40;;;;;;4985953;28;20480;-85
2022/06/28 11:48:09;;;;;;;3.30;2.80;;;24.60;75.50;;;;;;4983273;28;20441;-84
2022/06/28 11:50:41;;;;;;;6.20;2.90;;;24.60;75.10;;;;;;4982569;28;20473;-84
2022/06/28 11:53:06;;;;;;;2.77;2.47;;;24.60;75.70;;;;;;4975556;28;20418;-85
2022/06/28 11:55:44;;;;;;;5.40;3.47;;;24.60;77.00;;;;;;4977296;28;20972;-84
2022/06/28 11:58:19;;;;;;;3.47;2.37;;;24.60;76.20;;;;;;4988612;28;20217;-84
2022/06/28 12:01:24;;;;;;;3.27;2.57;;;24.70;74.70;;;;;;4981130;28;20464;-84
2022/06/28 12:03:50;;;;;;;2.63;2.50;;;24.80;76.20;;;;;;4912394;29;20944;-84
2022/06/28 12:06:24;;;;;;;2.57;2.40;;;24.90;75.50;;;;;;4977736;28;20547;-84
2022/06/28 12:08:53;;;;;;;2.77;2.40;;;25.00;75.70;;;;;;4987307;28;20181;-85
2022/06/28 12:11:40;;;;;;;3.07;2.37;;;25.10;75.70;;;;;;4988296;28;20417;-86
2022/06/28 12:14:20;;;;;;;4.43;2.60;;;25.20;74.40;;;;;;4984101;28;20426;-83
2022/06/28 12:16:53;;;;;;;2.93;2.73;;;25.30;73.10;;;;;;4988574;28;20551;-84
2022/06/28 12:19:25;;;;;;;2.90;2.70;;;25.30;73.70;;;;;;4988735;28;20460;-83
2022/06/28 12:22:19;;;;;;;2.43;2.27;;;25.30;71.70;;;;;;4979862;28;20768;-83
2022/06/28 12:24:56;;;;;;;2.43;2.27;;;25.40;73.70;;;;;;4972794;28;20509;-83
2022/06/28 12:27:27;;;;;;;3.73;2.60;;;25.50;74.40;;;;;;4982802;28;20435;-83
2022/06/28 12:29:57;;;;;;;2.33;2.17;;;25.60;72.20;;;;;;4990919;28;20442;-83
2022/06/28 12:32:23;;;;;;;3.40;2.50;;;25.60;71.60;;;;;;4990882;28;20432;-83
2022/06/28 12:35:06;;;;;;;3.40;2.33;;;25.70;73.60;;;;;;4988873;28;20429;-83
2022/06/28 12:37:33;;;;;;;2.73;2.50;;;25.80;72.50;;;;;;4981809;28;21030;-84
2022/06/28 12:39:59;;;;;;;3.20;2.53;;;25.90;71.70;;;;;;4984961;28;20475;-83
2022/06/28 12:42:27;;;;;;;4.63;2.07;;;26.00;71.60;;;;;;4991847;28;20471;-84
2022/06/28 12:44:53;;;;;;;3.10;2.50;;;26.10;71.80;;;;;;4988210;28;20848;-83
2022/06/28 12:47:19;;;;;;;2.93;2.40;;;26.20;70.80;;;;;;4989655;28;20546;-82
2022/06/28 12:49:45;;;;;;;2.63;2.50;;;26.40;71.50;;;;;;4987443;28;20444;-83
2022/06/28 12:52:11;;;;;;;6.13;2.50;;;26.50;70.80;;;;;;4988479;28;20244;-83